Time;durP1;ratioP1;P1;durP2;ratioP2;P2;SDS_P1;SDS_P2;PMS_P1;PMS_P2;Temp;Humidity;BMP_temperature;BMP_pressure;BME280_temperature;BME280_humidity;BME280_pressure;Samples;Min_cycle;Max_cycle;Signal;HPM_P1;HPM_P2
2022/08/24 00:00:54;;;;;;;7.97;1.75;;;19.00;99.90;;;;;;5013401;28;20119;-67
2022/08/24 00:03:19;;;;;;;6.30;1.88;;;19.00;99.90;;;;;;5013380;28;20028;-67
2022/08/24 00:05:46;;;;;;;3.53;1.65;;;19.00;99.90;;;;;;5013526;28;20089;-67
2022/08/24 00:08:12;;;;;;;4.93;1.50;;;19.10;99.90;;;;;;5013721;28;20030;-68
2022/08/24 00:10:38;;;;;;;6.38;1.55;;;19.00;99.90;;;;;;5013571;28;20033;-67
2022/08/24 00:13:04;;;;;;;4.65;1.40;;;19.00;99.90;;;;;;5013554;28;20034;-67
2022/08/24 00:15:30;;;;;;;6.20;1.73;;;19.00;99.90;;;;;;5013603;28;20028;-67
2022/08/24 00:17:55;;;;;;;8.40;1.70;;;19.00;99.90;;;;;;5013624;28;20018;-67
2022/08/24 00:20:21;;;;;;;7.65;1.95;;;19.10;99.90;;;;;;5013116;28;20476;-67
2022/08/24 00:22:46;;;;;;;6.00;1.90;;;19.10;99.90;;;;;;5013239;28;20041;-67
2022/08/24 00:25:13;;;;;;;8.35;2.13;;;19.10;99.90;;;;;;5013202;28;20030;-67
2022/08/24 00:27:40;;;;;;;4.82;1.58;;;19.10;99.90;;;;;;5013246;28;20026;-67
2022/08/24 00:30:09;;;;;;;5.95;1.50;;;19.10;99.90;;;;;;5013018;28;20122;-67
2022/08/24 00:32:36;;;;;;;6.82;1.92;;;19.00;99.90;;;;;;5013354;28;20026;-67
2022/08/24 00:35:04;;;;;;;8.82;1.38;;;19.10;99.90;;;;;;5013415;28;20101;-67
2022/08/24 00:37:29;;;;;;;4.00;1.58;;;19.00;99.90;;;;;;5014393;28;20046;-67
2022/08/24 00:39:56;;;;;;;4.28;1.77;;;19.00;99.90;;;;;;5016752;28;20022;-67
2022/08/24 00:42:23;;;;;;;7.63;2.17;;;19.10;99.90;;;;;;5016962;28;20025;-67
2022/08/24 00:44:48;;;;;;;4.03;1.38;;;19.10;99.90;;;;;;5016725;28;20069;-67
2022/08/24 00:47:27;;;;;;;4.80;2.15;;;19.10;99.90;;;;;;5016563;28;20049;-67
2022/08/24 00:49:58;;;;;;;5.60;1.83;;;19.10;99.90;;;;;;5016645;28;20042;-67
2022/08/24 00:52:30;;;;;;;6.28;1.92;;;19.10;99.90;;;;;;5016873;28;20037;-66
2022/08/24 00:55:12;;;;;;;10.57;1.63;;;19.10;99.90;;;;;;5016597;28;20386;-66
2022/08/24 00:57:43;;;;;;;5.05;2.30;;;19.10;99.90;;;;;;5016468;28;20022;-68
2022/08/24 01:00:18;;;;;;;8.23;2.00;;;19.10;99.90;;;;;;5016264;28;20033;-68
2022/08/24 01:02:47;;;;;;;5.97;1.42;;;19.10;99.90;;;;;;5017017;28;20459;-68
2022/08/24 01:05:17;;;;;;;6.25;1.90;;;19.10;99.90;;;;;;5016607;28;20029;-68
2022/08/24 01:07:43;;;;;;;8.15;2.00;;;19.10;99.90;;;;;;5016348;28;20504;-68
2022/08/24 01:10:15;;;;;;;5.43;1.67;;;19.10;99.90;;;;;;5014943;28;20033;-68
2022/08/24 01:12:43;;;;;;;5.45;1.80;;;19.00;99.90;;;;;;5016487;28;20112;-68
2022/08/24 01:15:10;;;;;;;2.75;1.52;;;19.10;99.90;;;;;;5016066;28;20022;-68
2022/08/24 01:20:25;;;;;;;7.63;1.80;;;19.00;99.90;;;;;;5016520;28;20106;-68
2022/08/24 01:23:08;;;;;;;4.82;1.42;;;19.00;99.90;;;;;;5016300;28;20036;-68
2022/08/24 01:25:36;;;;;;;4.57;1.67;;;19.00;99.90;;;;;;5016231;28;20053;-68
2022/08/24 01:28:10;;;;;;;4.40;1.90;;;19.00;99.90;;;;;;5015945;28;20036;-68
2022/08/24 01:30:36;;;;;;;5.68;1.60;;;19.00;99.90;;;;;;5015415;28;20030;-68
2022/08/24 01:33:05;;;;;;;6.35;2.25;;;19.00;99.90;;;;;;5015858;28;20088;-68
2022/08/24 01:35:31;;;;;;;6.47;1.90;;;19.00;99.90;;;;;;5015782;28;20033;-67
2022/08/24 01:38:00;;;;;;;4.28;1.83;;;18.90;99.90;;;;;;5015699;28;20443;-67
2022/08/24 01:40:33;;;;;;;3.50;1.50;;;18.80;99.90;;;;;;5015642;28;20030;-67
2022/08/24 01:42:59;;;;;;;4.10;1.97;;;18.80;99.90;;;;;;5015761;28;20022;-67
2022/08/24 01:45:25;;;;;;;5.57;1.48;;;18.70;99.90;;;;;;5015684;28;20088;-68
2022/08/24 01:47:51;;;;;;;6.47;1.83;;;18.60;99.90;;;;;;5015587;28;20025;-68
2022/08/24 01:50:16;;;;;;;5.97;2.08;;;18.50;99.90;;;;;;5056294;22;20049;-70
2022/08/24 01:52:43;;;;;;;4.03;1.77;;;18.50;99.90;;;;;;5016053;28;20026;-70
2022/08/24 01:55:13;;;;;;;1.88;1.48;;;18.40;99.90;;;;;;5015699;28;20101;-70
2022/08/24 01:57:39;;;;;;;6.57;1.88;;;18.30;99.90;;;;;;5015932;28;20061;-70
2022/08/24 02:00:07;;;;;;;6.63;1.55;;;18.20;99.90;;;;;;5015634;28;20097;-70
2022/08/24 02:02:33;;;;;;;6.60;1.80;;;18.10;99.90;;;;;;5015456;28;20413;-70
2022/08/24 02:04:58;;;;;;;4.10;1.65;;;18.10;99.90;;;;;;5016078;28;20026;-70
2022/08/24 02:07:25;;;;;;;5.25;1.73;;;18.00;99.90;;;;;;5015529;28;20037;-70
2022/08/24 02:09:51;;;;;;;4.85;1.92;;;18.00;99.90;;;;;;5015622;28;20021;-70
2022/08/24 02:12:19;;;;;;;5.53;2.05;;;17.90;99.90;;;;;;5015601;28;20034;-70
2022/08/24 02:14:45;;;;;;;4.22;1.60;;;17.80;99.90;;;;;;5015375;28;20386;-70
2022/08/24 02:17:10;;;;;;;5.97;2.00;;;17.80;99.90;;;;;;5015526;28;20030;-70
2022/08/24 02:19:37;;;;;;;5.50;1.63;;;17.70;99.90;;;;;;5015186;28;20057;-70
2022/08/24 02:22:04;;;;;;;7.68;2.33;;;17.60;99.90;;;;;;5015412;28;20033;-70
2022/08/24 02:24:31;;;;;;;5.05;2.08;;;17.60;99.90;;;;;;5015874;28;20046;-70
2022/08/24 02:26:57;;;;;;;3.22;1.60;;;17.50;99.90;;;;;;5015013;28;20383;-70
2022/08/24 02:29:23;;;;;;;6.47;1.73;;;17.50;99.90;;;;;;5015019;28;20056;-70
2022/08/24 02:31:49;;;;;;;8.13;2.13;;;17.40;99.90;;;;;;5014907;28;20071;-70
2022/08/24 02:34:15;;;;;;;4.47;1.80;;;17.30;99.90;;;;;;5014931;28;20096;-70
2022/08/24 02:36:40;;;;;;;10.00;2.35;;;17.30;99.90;;;;;;5014983;28;20029;-70
2022/08/24 02:39:07;;;;;;;5.05;1.58;;;17.30;99.90;;;;;;5014964;28;20025;-70
2022/08/24 02:41:33;;;;;;;6.35;2.10;;;17.20;99.90;;;;;;5014978;28;20453;-70
2022/08/24 02:43:59;;;;;;;8.10;2.20;;;17.20;99.90;;;;;;5014714;28;20029;-70
2022/08/24 02:46:28;;;;;;;3.70;1.65;;;17.20;99.90;;;;;;5015007;28;20041;-71
2022/08/24 02:48:54;;;;;;;4.93;1.65;;;17.20;99.90;;;;;;5015022;28;20022;-71
2022/08/24 02:51:27;;;;;;;6.80;1.58;;;17.10;99.90;;;;;;5014455;28;20065;-70
2022/08/24 02:53:53;;;;;;;4.00;1.92;;;17.20;99.90;;;;;;5014874;28;20084;-70
2022/08/24 02:56:19;;;;;;;3.58;1.52;;;17.10;99.90;;;;;;5015114;28;20026;-70
2022/08/24 02:58:46;;;;;;;5.00;1.83;;;17.10;99.90;;;;;;5014588;28;20022;-70
2022/08/24 03:01:12;;;;;;;6.45;2.00;;;17.00;99.90;;;;;;5014357;28;20439;-70
2022/08/24 03:03:38;;;;;;;7.63;2.85;;;17.00;99.90;;;;;;5014508;28;20022;-70
2022/08/24 03:06:05;;;;;;;4.38;1.60;;;17.00;99.90;;;;;;5014205;28;20030;-70
2022/08/24 03:08:31;;;;;;;3.55;1.30;;;16.90;99.90;;;;;;5014387;28;20390;-70
2022/08/24 03:10:59;;;;;;;7.18;2.03;;;16.80;99.90;;;;;;5014455;28;20030;-70
2022/08/24 03:13:29;;;;;;;4.78;1.92;;;16.90;99.90;;;;;;5014249;28;20026;-70
2022/08/24 03:15:56;;;;;;;7.85;2.15;;;16.80;99.90;;;;;;5014350;28;20022;-70
2022/08/24 03:18:24;;;;;;;5.25;2.05;;;16.80;99.90;;;;;;5014170;28;20069;-70
2022/08/24 03:20:50;;;;;;;7.50;2.38;;;16.80;99.90;;;;;;5014269;28;20026;-70
2022/08/24 03:23:16;;;;;;;6.75;2.15;;;16.70;99.90;;;;;;5014044;28;20022;-70
2022/08/24 03:25:42;;;;;;;3.05;1.63;;;16.60;99.90;;;;;;5014418;28;20120;-70
2022/08/24 03:28:07;;;;;;;7.20;2.40;;;16.60;99.90;;;;;;5014483;28;20359;-70
2022/08/24 03:30:33;;;;;;;5.75;2.53;;;16.60;99.90;;;;;;5013967;28;20026;-70
2022/08/24 03:32:59;;;;;;;6.40;2.05;;;16.60;99.90;;;;;;5013984;28;20474;-70
2022/08/24 03:35:24;;;;;;;4.90;2.10;;;16.60;99.90;;;;;;5014360;28;20022;-70
2022/08/24 03:37:50;;;;;;;2.97;1.80;;;16.70;99.90;;;;;;5013953;28;20052;-70
2022/08/24 03:40:19;;;;;;;7.70;2.65;;;16.70;99.90;;;;;;5014138;28;20029;-70
2022/08/24 03:42:44;;;;;;;8.18;2.58;;;16.80;99.90;;;;;;5013954;28;20030;-70
2022/08/24 03:45:10;;;;;;;5.78;2.13;;;16.90;99.90;;;;;;5014198;28;20033;-70
2022/08/24 03:47:36;;;;;;;8.57;2.15;;;16.90;99.90;;;;;;5014486;28;20420;-70
2022/08/24 03:50:03;;;;;;;7.30;1.80;;;17.00;99.90;;;;;;5013983;28;20112;-70
2022/08/24 03:52:28;;;;;;;6.85;1.88;;;17.00;99.90;;;;;;5013765;28;20477;-70
2022/08/24 03:54:54;;;;;;;9.05;2.35;;;17.00;99.90;;;;;;5013942;28;20037;-70
2022/08/24 03:57:19;;;;;;;7.25;2.42;;;17.00;99.90;;;;;;5014348;28;20030;-70
2022/08/24 03:59:45;;;;;;;5.53;2.30;;;17.00;99.90;;;;;;5013813;28;20092;-70
2022/08/24 04:02:11;;;;;;;11.52;2.42;;;17.00;99.90;;;;;;5013587;28;20037;-70
2022/08/24 04:04:36;;;;;;;7.07;2.20;;;17.00;99.90;;;;;;5014311;28;20474;-70
2022/08/24 04:07:03;;;;;;;6.28;2.30;;;17.00;99.90;;;;;;5013800;28;20030;-70
2022/08/24 04:09:28;;;;;;;6.68;2.20;;;17.00;99.90;;;;;;5013541;28;20028;-70
2022/08/24 04:11:54;;;;;;;4.30;2.00;;;17.00;99.90;;;;;;5013728;28;20021;-70
2022/08/24 04:14:19;;;;;;;5.60;2.17;;;17.10;99.90;;;;;;5017435;28;20056;-70
2022/08/24 04:16:45;;;;;;;11.20;2.80;;;17.00;99.90;;;;;;5017644;28;20470;-70
2022/08/24 04:19:13;;;;;;;9.23;2.40;;;17.00;99.90;;;;;;5017558;28;20049;-70
2022/08/24 04:21:38;;;;;;;5.75;1.80;;;17.00;99.90;;;;;;5017459;28;20105;-70
2022/08/24 04:24:06;;;;;;;6.18;2.30;;;17.00;99.90;;;;;;5017455;28;20054;-71
2022/08/24 04:26:32;;;;;;;7.93;1.98;;;16.90;99.90;;;;;;5017676;28;20030;-71
2022/08/24 04:28:58;;;;;;;9.27;2.50;;;17.00;99.90;;;;;;5017610;28;20026;-71
2022/08/24 04:31:25;;;;;;;8.80;2.33;;;17.00;99.90;;;;;;5017170;28;20022;-70
2022/08/24 04:33:51;;;;;;;10.18;2.47;;;16.90;99.90;;;;;;5017494;28;20041;-71
2022/08/24 04:36:19;;;;;;;5.05;2.08;;;17.10;99.90;;;;;;5017113;28;20033;-71
2022/08/24 04:38:45;;;;;;;9.75;2.25;;;17.10;99.90;;;;;;5017404;28;20030;-71
2022/08/24 04:41:12;;;;;;;7.80;2.20;;;17.10;99.90;;;;;;5017279;28;20108;-71
2022/08/24 04:43:38;;;;;;;9.23;1.60;;;17.10;99.90;;;;;;5017831;28;20030;-71
2022/08/24 04:46:07;;;;;;;5.68;2.38;;;17.10;99.90;;;;;;5017329;28;20028;-70
2022/08/24 04:48:34;;;;;;;6.32;2.53;;;17.20;99.90;;;;;;5017246;28;20029;-70
2022/08/24 04:51:02;;;;;;;6.18;2.78;;;17.20;99.90;;;;;;5016524;28;20042;-71
2022/08/24 04:53:27;;;;;;;5.78;2.15;;;17.20;99.90;;;;;;5016865;28;20026;-71
2022/08/24 04:55:53;;;;;;;8.68;3.45;;;17.20;99.90;;;;;;5016855;28;20018;-71
2022/08/24 04:58:18;;;;;;;8.50;2.72;;;17.20;99.90;;;;;;5016788;28;20030;-71
2022/08/24 05:00:45;;;;;;;9.43;1.92;;;17.20;99.90;;;;;;5016416;28;20032;-71
2022/08/24 05:03:11;;;;;;;13.38;2.80;;;17.20;99.90;;;;;;5016748;28;20026;-71
2022/08/24 05:05:45;;;;;;;7.55;2.13;;;17.20;99.90;;;;;;5017214;28;20044;-71
2022/08/24 05:08:11;;;;;;;9.60;2.50;;;17.20;99.90;;;;;;5016626;28;20486;-71
2022/08/24 05:10:44;;;;;;;7.78;2.20;;;17.10;99.90;;;;;;5016386;28;20041;-71
2022/08/24 05:13:10;;;;;;;11.27;2.40;;;17.20;99.90;;;;;;5016602;28;20022;-71
2022/08/24 05:15:40;;;;;;;6.05;2.05;;;17.10;99.90;;;;;;5016417;28;20152;-71
2022/08/24 05:18:06;;;;;;;9.77;2.28;;;17.10;99.90;;;;;;5015331;28;20026;-71
2022/08/24 05:20:32;;;;;;;9.93;2.45;;;17.00;99.90;;;;;;5016290;28;20026;-71
2022/08/24 05:22:58;;;;;;;5.45;2.88;;;17.10;99.90;;;;;;5016664;28;20022;-71
2022/08/24 05:25:24;;;;;;;5.13;2.33;;;17.10;99.90;;;;;;5015190;28;20048;-71
2022/08/24 05:27:50;;;;;;;4.93;2.15;;;17.10;99.90;;;;;;5016337;28;20034;-71
2022/08/24 05:30:16;;;;;;;8.05;2.28;;;17.20;99.90;;;;;;5016231;28;20105;-71
2022/08/24 05:32:41;;;;;;;6.60;2.50;;;17.20;99.90;;;;;;5016713;28;20109;-71
2022/08/24 05:35:07;;;;;;;9.57;2.50;;;17.20;99.90;;;;;;5016358;28;20029;-71
2022/08/24 05:37:37;;;;;;;7.72;2.83;;;17.20;99.90;;;;;;5016164;28;20068;-71
2022/08/24 05:40:10;;;;;;;6.30;2.20;;;17.30;99.90;;;;;;5016145;28;20026;-70
2022/08/24 05:42:36;;;;;;;6.25;2.22;;;17.40;99.90;;;;;;5016262;28;20034;-70
2022/08/24 05:45:01;;;;;;;13.88;3.13;;;17.50;99.90;;;;;;5015915;28;20029;-70
2022/08/24 05:47:27;;;;;;;5.97;2.50;;;17.50;99.90;;;;;;5015544;28;20389;-69
2022/08/24 05:49:53;;;;;;;5.90;2.22;;;17.60;99.90;;;;;;5015618;28;20041;-69
2022/08/24 05:52:20;;;;;;;8.88;2.72;;;17.70;99.90;;;;;;5015535;28;20095;-69
2022/08/24 05:54:54;;;;;;;6.97;2.45;;;17.80;99.90;;;;;;5015854;28;20018;-69
2022/08/24 05:57:21;;;;;;;8.77;2.25;;;17.90;99.90;;;;;;5016040;28;20018;-69
2022/08/24 05:59:46;;;;;;;9.00;2.78;;;18.00;99.90;;;;;;5015548;28;20026;-69
2022/08/24 06:02:12;;;;;;;13.00;3.35;;;18.10;99.90;;;;;;5015760;28;20038;-70
2022/08/24 06:04:38;;;;;;;12.05;2.67;;;18.30;99.90;;;;;;5015492;28;20057;-70
2022/08/24 06:07:05;;;;;;;8.80;2.40;;;18.40;99.90;;;;;;5015741;28;20056;-69
2022/08/24 06:09:31;;;;;;;6.65;2.35;;;18.60;99.90;;;;;;5015429;28;20474;-69
2022/08/24 06:11:58;;;;;;;10.15;2.50;;;18.80;99.90;;;;;;5015977;28;20030;-71
2022/08/24 06:14:23;;;;;;;10.30;3.35;;;19.00;99.90;;;;;;5015746;28;20014;-71
2022/08/24 06:16:49;;;;;;;13.73;2.92;;;19.20;99.90;;;;;;5015461;28;20450;-71
2022/08/24 06:19:17;;;;;;;7.55;2.67;;;19.40;99.90;;;;;;5015340;28;20032;-71
2022/08/24 06:21:45;;;;;;;7.30;2.60;;;19.50;99.90;;;;;;5015394;28;20022;-71
2022/08/24 06:24:11;;;;;;;6.05;2.42;;;19.70;99.90;;;;;;5015526;28;20048;-70
2022/08/24 06:29:21;;;;;;;6.38;2.50;;;19.90;99.90;;;;;;5015039;28;20037;-70
2022/08/24 06:31:48;;;;;;;8.75;2.45;;;19.90;99.90;;;;;;5015587;28;20034;-71
2022/08/24 06:34:16;;;;;;;7.18;2.20;;;19.90;99.90;;;;;;5014682;28;20078;-71
2022/08/24 06:36:42;;;;;;;11.25;2.50;;;19.90;99.90;;;;;;5014922;28;20172;-73
2022/08/24 06:39:08;;;;;;;8.25;2.20;;;19.90;99.90;;;;;;5015103;28;20096;-69
2022/08/24 06:41:35;;;;;;;7.55;2.58;;;20.00;99.90;;;;;;5015237;28;20021;-69
2022/08/24 06:44:01;;;;;;;11.73;2.22;;;19.90;99.90;;;;;;5015101;28;20030;-69
2022/08/24 06:46:27;;;;;;;12.43;2.40;;;19.80;99.90;;;;;;5014953;28;20550;-69
2022/08/24 06:48:53;;;;;;;11.40;2.83;;;19.80;99.90;;;;;;5014986;28;20075;-69
2022/08/24 06:51:21;;;;;;;4.43;2.13;;;20.00;99.90;;;;;;5014680;28;20127;-69
2022/08/24 06:53:47;;;;;;;10.20;2.50;;;20.10;99.90;;;;;;5014557;28;20053;-69
2022/08/24 06:56:13;;;;;;;14.27;2.70;;;20.40;99.90;;;;;;5014831;28;20028;-69
2022/08/24 06:58:39;;;;;;;6.80;2.45;;;20.70;99.90;;;;;;5014698;28;20443;-69
2022/08/24 07:01:16;;;;;;;9.23;2.47;;;21.00;99.90;;;;;;5014661;28;20102;-69
2022/08/24 07:03:44;;;;;;;4.32;2.15;;;21.20;99.90;;;;;;5014944;28;20022;-69
2022/08/24 07:06:11;;;;;;;5.68;1.92;;;21.40;99.90;;;;;;5015676;28;20044;-70
2022/08/24 07:08:37;;;;;;;5.95;1.95;;;21.40;99.90;;;;;;5015665;28;20034;-69
2022/08/24 07:11:04;;;;;;;6.75;1.95;;;21.60;99.90;;;;;;5015031;28;20521;-69
2022/08/24 07:13:30;;;;;;;8.80;2.58;;;21.70;99.90;;;;;;5014648;28;20081;-69
2022/08/24 07:15:58;;;;;;;6.18;2.20;;;21.90;99.90;;;;;;5014616;28;20061;-69
2022/08/24 07:18:23;;;;;;;5.20;2.08;;;22.00;99.90;;;;;;5014224;28;20505;-68
2022/08/24 07:20:50;;;;;;;6.50;2.22;;;22.00;99.90;;;;;;5014242;28;20034;-69
2022/08/24 07:23:16;;;;;;;17.10;3.60;;;22.20;99.90;;;;;;5014133;28;20076;-70
2022/08/24 07:25:44;;;;;;;7.53;2.40;;;22.30;99.90;;;;;;5014161;28;20057;-70
2022/08/24 07:28:10;;;;;;;5.10;1.85;;;22.50;99.90;;;;;;5014192;28;20033;-71
2022/08/24 07:30:37;;;;;;;11.38;2.38;;;22.70;99.90;;;;;;5013796;28;20061;-70
2022/08/24 07:33:03;;;;;;;8.55;1.73;;;22.70;99.90;;;;;;5013920;28;20022;-70
2022/08/24 07:35:31;;;;;;;8.73;2.05;;;22.80;99.90;;;;;;5014129;28;20049;-71
2022/08/24 07:37:57;;;;;;;14.35;2.10;;;23.10;99.90;;;;;;5014039;28;20034;-70
2022/08/24 07:40:25;;;;;;;9.73;2.53;;;23.10;99.90;;;;;;5013949;28;20051;-70
2022/08/24 07:42:53;;;;;;;8.25;3.03;;;23.20;99.90;;;;;;5013722;28;20444;-70
2022/08/24 07:45:19;;;;;;;13.20;2.72;;;23.40;99.90;;;;;;5013962;28;20022;-70
2022/08/24 07:47:45;;;;;;;14.05;2.60;;;23.60;99.90;;;;;;5013250;28;20393;-71
2022/08/24 07:50:12;;;;;;;6.13;1.70;;;23.80;99.90;;;;;;5039097;22;20121;-69
2022/08/24 07:52:37;;;;;;;16.88;2.20;;;24.00;99.90;;;;;;5013236;28;20634;-70
2022/08/24 07:55:04;;;;;;;10.88;2.55;;;24.00;99.90;;;;;;5013497;28;20041;-70
2022/08/24 07:57:30;;;;;;;10.55;1.98;;;24.00;99.90;;;;;;5013540;28;20030;-70
2022/08/24 07:59:58;;;;;;;18.67;2.17;;;24.30;99.90;;;;;;5013801;28;20028;-70
2022/08/24 08:02:25;;;;;;;11.32;2.20;;;24.40;99.90;;;;;;5013521;28;20038;-71
2022/08/24 08:04:50;;;;;;;11.52;1.98;;;24.50;99.90;;;;;;5013724;28;20061;-71
2022/08/24 08:07:16;;;;;;;15.35;2.10;;;24.60;99.90;;;;;;5012405;28;20058;-71
2022/08/24 08:09:42;;;;;;;11.95;2.05;;;24.60;99.90;;;;;;5013800;28;20033;-70
2022/08/24 08:12:08;;;;;;;5.07;1.80;;;24.70;99.90;;;;;;5013576;28;20033;-70
2022/08/24 08:14:34;;;;;;;10.40;2.10;;;24.80;99.90;;;;;;5013506;28;20030;-70
2022/08/24 08:17:00;;;;;;;7.32;1.98;;;24.80;99.90;;;;;;5013554;28;20474;-70
2022/08/24 08:19:27;;;;;;;6.65;1.88;;;24.90;99.90;;;;;;5013670;28;20105;-71
2022/08/24 08:24:39;;;;;;;5.68;2.25;;;25.10;99.90;;;;;;5013456;28;20029;-71
2022/08/24 08:27:05;;;;;;;17.67;2.10;;;25.10;99.90;;;;;;5013716;28;20018;-71
2022/08/24 08:29:33;;;;;;;5.32;1.92;;;25.30;99.90;;;;;;5013221;28;20477;-70
2022/08/24 08:31:59;;;;;;;7.15;2.10;;;25.50;99.90;;;;;;5013187;28;20034;-71
2022/08/24 08:34:25;;;;;;;9.13;1.85;;;25.60;99.90;;;;;;5013591;28;20018;-70
2022/08/24 08:36:51;;;;;;;11.50;1.95;;;25.70;99.90;;;;;;5013410;28;20029;-70
2022/08/24 08:39:18;;;;;;;7.82;1.52;;;25.60;99.90;;;;;;5013200;28;20041;-70
2022/08/24 08:42:13;;;;;;;7.50;1.88;;;25.70;99.90;;;;;;5013517;28;20026;-70
2022/08/24 08:45:06;;;;;;;5.95;2.15;;;25.90;99.90;;;;;;5013320;28;20026;-70
2022/08/24 08:47:32;;;;;;;8.98;1.95;;;26.00;99.90;;;;;;5013125;28;20030;-70
2022/08/24 08:49:58;;;;;;;16.15;2.42;;;26.20;99.90;;;;;;5013352;28;20084;-70
2022/08/24 08:53:00;;;;;;;8.75;1.45;;;26.20;99.90;;;;;;5012818;28;20506;-70
2022/08/24 08:55:52;;;;;;;5.53;1.85;;;26.30;99.90;;;;;;5013035;28;20414;-69
2022/08/24 08:58:36;;;;;;;11.48;2.20;;;26.30;99.90;;;;;;4985894;28;20134;-69
2022/08/24 09:01:26;;;;;;;4.25;1.67;;;26.50;99.90;;;;;;5016604;28;20105;-69
2022/08/24 09:04:18;;;;;;;7.88;1.80;;;26.60;99.90;;;;;;5016829;28;20101;-69
2022/08/24 09:06:51;;;;;;;14.98;1.95;;;26.90;99.90;;;;;;5016562;28;20053;-70
2022/08/24 09:09:27;;;;;;;8.90;2.08;;;27.00;99.90;;;;;;5016510;28;20109;-69
2022/08/24 09:12:06;;;;;;;12.70;2.13;;;27.10;99.90;;;;;;5016221;28;20018;-69
2022/08/24 09:14:45;;;;;;;10.57;2.00;;;27.30;99.90;;;;;;5016358;28;20037;-69
2022/08/24 09:17:20;;;;;;;5.95;1.42;;;27.40;99.90;;;;;;5016310;28;20022;-69
2022/08/24 09:20:09;;;;;;;11.80;1.70;;;27.40;99.90;;;;;;5016222;28;20493;-69
2022/08/24 09:22:40;;;;;;;7.00;2.53;;;27.50;99.90;;;;;;5015901;28;20466;-69
2022/08/24 09:25:39;;;;;;;5.35;1.92;;;27.70;99.90;;;;;;5015813;28;20034;-69
2022/08/24 09:28:27;;;;;;;4.90;1.85;;;27.80;99.90;;;;;;5016355;28;20041;-69
2022/08/24 09:31:15;;;;;;;6.32;1.50;;;27.80;99.90;;;;;;5015967;28;20029;-69
2022/08/24 09:34:05;;;;;;;6.03;1.35;;;27.90;99.90;;;;;;5016012;28;20049;-69
2022/08/24 09:37:02;;;;;;;11.88;2.00;;;28.10;99.90;;;;;;5015973;28;20068;-69
2022/08/24 09:39:34;;;;;;;18.33;2.15;;;28.20;99.90;;;;;;5015764;28;20022;-69
2022/08/24 09:42:21;;;;;;;6.13;1.80;;;28.40;99.90;;;;;;5015790;28;20021;-69
2022/08/24 09:45:05;;;;;;;6.65;1.63;;;28.70;99.90;;;;;;5016070;28;20377;-67
2022/08/24 09:48:09;;;;;;;2.97;1.17;;;28.90;99.90;;;;;;5015990;28;20033;-67
2022/08/24 09:51:12;;;;;;;5.47;1.75;;;29.10;99.90;;;;;;4974240;28;20150;-68
2022/08/24 09:53:59;;;;;;;10.85;2.00;;;29.10;99.90;;;;;;4974739;28;20039;-67
2022/08/24 09:56:44;;;;;;;7.47;1.67;;;29.10;99.90;;;;;;5009746;28;20544;-67
2022/08/24 09:59:40;;;;;;;11.10;2.15;;;29.40;99.90;;;;;;5015478;28;20462;-68
2022/08/24 10:02:24;;;;;;;8.50;1.85;;;29.30;99.90;;;;;;5015243;28;20018;-67
2022/08/24 10:05:05;;;;;;;5.32;1.67;;;29.40;99.90;;;;;;5015460;28;20049;-68
2022/08/24 10:08:02;;;;;;;8.30;2.22;;;29.50;99.90;;;;;;5015489;28;20041;-68
2022/08/24 10:10:57;;;;;;;6.90;2.15;;;29.70;99.90;;;;;;5014701;28;20017;-68
2022/08/24 10:13:37;;;;;;;6.97;1.52;;;30.00;99.90;;;;;;5015258;28;20100;-68
2022/08/24 10:16:22;;;;;;;9.27;1.75;;;30.20;99.90;;;;;;5014849;28;20029;-68
2022/08/24 10:19:29;;;;;;;9.50;1.77;;;30.20;99.90;;;;;;5015404;28;20018;-68
2022/08/24 10:22:22;;;;;;;6.85;1.40;;;30.20;99.90;;;;;;5014905;28;20053;-68
2022/08/24 10:25:21;;;;;;;6.25;1.70;;;30.40;99.90;;;;;;5014988;28;20022;-68
2022/08/24 10:28:20;;;;;;;4.90;1.80;;;30.60;99.90;;;;;;5015529;28;20032;-68
2022/08/24 10:31:08;;;;;;;10.43;1.58;;;30.90;99.90;;;;;;5015087;28;20474;-68
2022/08/24 10:33:52;;;;;;;3.97;1.50;;;31.10;99.90;;;;;;5014735;28;20026;-68
2022/08/24 10:36:43;;;;;;;10.77;1.65;;;31.40;99.90;;;;;;5014740;28;20022;-69
2022/08/24 10:39:42;;;;;;;10.93;1.70;;;31.50;99.90;;;;;;5015324;28;20014;-68
2022/08/24 10:45:45;;;;;;;7.45;1.45;;;31.50;99.90;;;;;;5004712;28;20024;-68
2022/08/24 10:48:30;;;;;;;5.32;1.40;;;31.40;99.90;;;;;;5010017;28;20022;-69
2022/08/24 10:51:34;;;;;;;4.10;1.63;;;31.70;99.90;;;;;;5004881;28;20038;-68
2022/08/24 10:54:01;;;;;;;14.48;2.17;;;32.00;99.90;;;;;;5001952;28;20031;-68
2022/08/24 10:56:38;;;;;;;8.55;2.42;;;32.00;99.90;;;;;;5010451;28;20030;-68
2022/08/24 10:59:30;;;;;;;6.60;1.30;;;32.20;99.90;;;;;;5011223;28;20494;-69
2022/08/24 11:02:06;;;;;;;5.20;1.27;;;32.00;99.50;;;;;;5002041;28;20453;-69
2022/08/24 11:04:34;;;;;;;9.07;1.42;;;31.60;99.30;;;;;;5007693;28;20434;-69
2022/08/24 11:07:08;;;;;;;4.43;1.38;;;31.00;99.90;;;;;;5007602;28;20371;-69
2022/08/24 11:09:58;;;;;;;6.07;1.98;;;30.90;99.80;;;;;;5008375;28;20101;-69
2022/08/24 11:12:35;;;;;;;7.20;1.73;;;30.60;99.90;;;;;;5001097;28;20030;-69
2022/08/24 11:15:17;;;;;;;8.70;1.60;;;30.80;99.90;;;;;;5005561;28;20025;-69
2022/08/24 11:18:12;;;;;;;6.82;1.60;;;31.00;99.90;;;;;;4999366;28;20035;-68
2022/08/24 11:20:45;;;;;;;4.68;1.27;;;31.20;99.90;;;;;;4989139;28;20067;-68
2022/08/24 11:23:21;;;;;;;8.30;1.60;;;31.60;99.80;;;;;;5013693;28;20053;-68
2022/08/24 11:26:01;;;;;;;6.75;1.20;;;31.80;98.90;;;;;;5013881;28;20025;-68
2022/08/24 11:28:32;;;;;;;8.55;1.30;;;32.00;99.50;;;;;;5013789;28;20393;-68
2022/08/24 11:30:58;;;;;;;15.77;1.30;;;32.10;97.10;;;;;;5013424;28;20030;-68
2022/08/24 11:33:59;;;;;;;4.70;1.85;;;32.20;99.20;;;;;;5013819;28;20036;-68
2022/08/24 11:36:30;;;;;;;4.53;1.38;;;32.30;98.00;;;;;;4978855;28;20033;-68
2022/08/24 11:39:28;;;;;;;4.10;1.05;;;32.60;99.20;;;;;;5013787;28;20030;-68
2022/08/24 11:41:56;;;;;;;6.97;1.20;;;32.60;97.20;;;;;;5013662;28;20018;-68
2022/08/24 11:44:48;;;;;;;5.97;1.30;;;32.60;97.10;;;;;;5013528;28;20028;-68
2022/08/24 11:47:20;;;;;;;6.57;1.33;;;32.60;96.80;;;;;;5002628;28;20508;-68
2022/08/24 11:50:10;;;;;;;3.30;1.13;;;32.70;96.00;;;;;;5013354;28;20038;-68
2022/08/24 11:52:50;;;;;;;5.00;1.35;;;32.70;95.10;;;;;;5013380;28;20026;-68
2022/08/24 11:55:19;;;;;;;3.13;1.20;;;32.90;94.90;;;;;;5013466;28;20045;-68
2022/08/24 11:58:02;;;;;;;3.10;1.35;;;33.30;96.40;;;;;;5013831;28;20078;-68
2022/08/24 12:00:59;;;;;;;6.28;1.48;;;33.80;96.20;;;;;;5013785;28;20026;-68
2022/08/24 12:03:42;;;;;;;8.50;1.63;;;34.20;95.40;;;;;;5013754;28;20037;-68
2022/08/24 12:06:27;;;;;;;;;;;34.30;92.60;;;;;;5014453;28;20386;-68
2022/08/24 12:09:14;;;;;;;5.25;1.20;;;34.40;92.40;;;;;;4992701;28;19913;-68
2022/08/24 12:12:05;;;;;;;6.45;1.00;;;34.60;91.80;;;;;;5013408;28;20034;-68
2022/08/24 12:14:54;;;;;;;4.80;1.00;;;34.90;91.80;;;;;;5013389;28;20120;-68
2022/08/24 12:17:50;;;;;;;6.45;1.60;;;35.00;91.70;;;;;;5013575;28;20054;-68
2022/08/24 12:20:37;;;;;;;3.10;1.48;;;34.60;85.30;;;;;;5012171;28;20061;-68
2022/08/24 12:23:33;;;;;;;4.90;1.35;;;34.90;91.00;;;;;;5013616;28;20084;-68
2022/08/24 12:26:03;;;;;;;7.25;1.35;;;35.20;86.10;;;;;;5013475;28;20080;-68
2022/08/24 12:28:40;;;;;;;6.72;1.52;;;35.30;87.30;;;;;;5013569;28;20026;-68
2022/08/24 12:31:16;;;;;;;4.65;1.55;;;35.50;86.50;;;;;;5013089;28;20078;-68
2022/08/24 12:33:46;;;;;;;4.13;1.30;;;35.80;83.20;;;;;;5014242;28;20026;-68
2022/08/24 12:36:27;;;;;;;2.97;1.08;;;35.60;84.10;;;;;;5016914;28;20054;-68
2022/08/24 12:39:06;;;;;;;6.75;1.55;;;35.70;85.60;;;;;;5017500;28;20018;-68
2022/08/24 12:42:10;;;;;;;3.03;0.98;;;36.10;82.00;;;;;;5016932;28;20045;-69
2022/08/24 12:44:52;;;;;;;4.68;1.27;;;36.60;82.00;;;;;;4956422;29;20031;-68
2022/08/24 12:47:40;;;;;;;3.00;1.10;;;36.50;77.60;;;;;;5012368;28;20038;-68
2022/08/24 12:50:27;;;;;;;13.55;1.42;;;36.80;77.70;;;;;;5016736;28;20038;-68
2022/08/24 12:53:12;;;;;;;4.07;1.92;;;36.90;75.80;;;;;;5016546;28;20099;-68
2022/08/24 12:56:05;;;;;;;8.18;1.20;;;36.70;73.80;;;;;;5017227;28;20014;-68
2022/08/24 12:59:07;;;;;;;12.63;1.60;;;36.70;73.90;;;;;;5016601;28;20026;-68
2022/08/24 13:01:40;;;;;;;6.53;0.98;;;36.80;73.80;;;;;;5016557;28;20064;-68
2022/08/24 13:04:28;;;;;;;4.20;1.13;;;36.10;70.10;;;;;;5016661;28;20030;-68
2022/08/24 13:07:28;;;;;;;4.78;0.90;;;36.00;71.60;;;;;;5016711;28;20026;-68
2022/08/24 13:09:57;;;;;;;7.38;1.45;;;36.40;73.70;;;;;;5016668;28;20478;-68
2022/08/24 13:12:43;;;;;;;3.38;1.55;;;36.40;73.20;;;;;;5016260;28;20061;-68
2022/08/24 13:15:20;;;;;;;6.85;1.45;;;36.60;71.20;;;;;;5012382;28;20040;-68
2022/08/24 13:17:48;;;;;;;2.70;1.15;;;36.70;72.20;;;;;;5016135;28;20014;-68
2022/08/24 13:20:22;;;;;;;9.25;1.02;;;36.70;73.30;;;;;;5015769;28;20100;-68
2022/08/24 13:23:06;;;;;;;2.75;1.02;;;37.10;75.50;;;;;;5016490;28;20026;-68
2022/08/24 13:25:58;;;;;;;4.90;1.20;;;37.00;74.00;;;;;;5016065;28;20026;-68